Ayhanlar — TCA4536 — position and weather

sailwx.info

Track history (hours):
 
Tides and Currents Weather Stations Pressure Air Temp Water Temp Dewpoint Dewpoint Depression Visibility Wind Speed Wind Dir Waves Ship Positions

Ayhanlar

Last reported at 2018-Jul-05 05:19 UTC. Time now 2018-Jul-22 08:47 UTC.
Position N 41°28' E 031°47'.
Warning: this ship's position is 17 days out of date.

Length 91 m; draft 7.2 m.

Type: Ship (hazmat cat D). MMSI: 271044965.

Date/timePositionNaut miles runAvg speedWind from/ knotsBaromVisibWave heightAir tempDewpointWater temp
2018-Jul-05 05:19N 41°28' E 031°47'0 0.0
2018-Jul-05 03:50N 41°28' E 031°47'0 0.0
2018-Jul-05 03:17N 41°28' E 031°47'0 0.0
2018-Jul-05 02:59N 41°28' E 031°47'0 0.0
2018-Jul-05 02:26N 41°28' E 031°47'0 0.1
2018-Jul-05 01:59N 41°28' E 031°47'0 0.0
2018-Jul-05 01:16N 41°28' E 031°47'0 0.0
2018-Jul-05 00:49N 41°28' E 031°47'0 0.1
2018-Jul-05 00:25N 41°28' E 031°47'0 0.0
2018-Jul-04 23:52N 41°28' E 031°47'0 0.0
2018-Jul-04 23:14N 41°28' E 031°47'0 0.0
2018-Jul-04 22:47N 41°28' E 031°47'0 0.0
2018-Jul-04 22:17N 41°28' E 031°47'0 0.0
2018-Jul-04 21:56N 41°28' E 031°47'0 0.0
2018-Jul-04 21:23N 41°28' E 031°47'0 0.0
2018-Jul-04 20:50N 41°28' E 031°47'0 0.0
2018-Jul-04 20:14N 41°28' E 031°47'0 0.0
2018-Jul-04 18:41N 41°28' E 031°47'0 0.0
2018-Jul-04 18:29N 41°28' E 031°47'0 0.0
2018-Jul-04 17:59N 41°28' E 031°47'0 0.0
2018-Jul-04 17:29N 41°28' E 031°47'0 0.0
2018-Jul-04 16:56N 41°28' E 031°47'0 0.0
2018-Jul-04 15:08N 41°28' E 031°47'0 0.0
2018-Jul-04 14:56N 41°28' E 031°47'0 0.0
2018-Jul-04 08:48N 41°28' E 031°47'0 0.0
2018-Jul-04 08:27N 41°28' E 031°47'0 0.0
2018-Jul-04 08:00N 41°28' E 031°47'14 7.0
2018-Jul-04 05:57N 41°22' E 031°29'4 8.6
2018-Jul-04 05:29N 41°20' E 031°25'4 8.6
2018-Jul-04 05:00N 41°19' E 031°19'4 8.3
2018-Jul-04 04:30N 41°19' E 031°14'4 8.2
2018-Jul-04 04:00N 41°19' E 031°08'4 8.5
2018-Jul-04 03:30N 41°18' E 031°03'4 8.3
2018-Jul-04 03:00N 41°18' E 030°57'4 8.2
2018-Jul-04 02:30N 41°18' E 030°52'4 8.2
2018-Jul-04 02:00N 41°18' E 030°46'4 8.2
2018-Jul-04 01:30N 41°18' E 030°41'4 8.3
2018-Jul-04 01:00N 41°17' E 030°35'4 8.1
2018-Jul-04 00:30N 41°17' E 030°30'4 8.0
2018-Jul-04 00:00N 41°17' E 030°25'4 8.1
2018-Jul-03 23:30N 41°16' E 030°19'4 8.2
2018-Jul-03 23:00N 41°16' E 030°14'4 8.3
2018-Jul-03 22:30N 41°16' E 030°08'19 8.7
2018-Jul-03 20:18N 41°16' E 029°43'2 8.4
2018-Jul-03 20:00N 41°16' E 029°40'4 8.2
2018-Jul-03 19:28N 41°16' E 029°34'4 8.2
2018-Jul-03 19:00N 41°16' E 029°29'4 8.0
2018-Jul-03 18:30N 41°15' E 029°23'4 8.0
2018-Jul-03 18:00N 41°15' E 029°18'4 8.0
2018-Jul-03 17:30N 41°15' E 029°13'5 8.2
2018-Jul-03 16:56N 41°13' E 029°07'  
2018-Jun-27 22:45N 41°53' E 032°42'19 8.6
2018-Jun-27 20:34N 41°59' E 033°06'2 8.8
2018-Jun-27 20:23N 41°60' E 033°08'  
Track history (hours):
 
Tides and Currents Weather Stations Pressure Air Temp Water Temp Dewpoint Dewpoint Depression Visibility Wind Speed Wind Dir Waves Ship Positions

Ayhanlar

Last reported at 2018-Jul-05 05:19 UTC. Time now 2018-Jul-22 08:47 UTC.
Position N 41°28' E 031°47'.
Warning: this ship's position is 17 days out of date.

Length 91 m; draft 7.2 m.

Type: Ship (hazmat cat D). MMSI: 271044965.

Date/timePositionNaut miles runAvg speedWind from/ knotsBaromVisibWave heightAir tempDewpointWater temp
2018-Jul-05 05:19N 41°28' E 031°47'0 0.0
2018-Jul-05 03:50N 41°28' E 031°47'0 0.0
2018-Jul-05 03:17N 41°28' E 031°47'0 0.0
2018-Jul-05 02:59N 41°28' E 031°47'0 0.0
2018-Jul-05 02:26N 41°28' E 031°47'0 0.1
2018-Jul-05 01:59N 41°28' E 031°47'0 0.0
2018-Jul-05 01:16N 41°28' E 031°47'0 0.0
2018-Jul-05 00:49N 41°28' E 031°47'0 0.1
2018-Jul-05 00:25N 41°28' E 031°47'0 0.0
2018-Jul-04 23:52N 41°28' E 031°47'0 0.0
2018-Jul-04 23:14N 41°28' E 031°47'0 0.0
2018-Jul-04 22:47N 41°28' E 031°47'0 0.0
2018-Jul-04 22:17N 41°28' E 031°47'0 0.0
2018-Jul-04 21:56N 41°28' E 031°47'0 0.0
2018-Jul-04 21:23N 41°28' E 031°47'0 0.0
2018-Jul-04 20:50N 41°28' E 031°47'0 0.0
2018-Jul-04 20:14N 41°28' E 031°47'0 0.0
2018-Jul-04 18:41N 41°28' E 031°47'0 0.0
2018-Jul-04 18:29N 41°28' E 031°47'0 0.0
2018-Jul-04 17:59N 41°28' E 031°47'0 0.0
2018-Jul-04 17:29N 41°28' E 031°47'0 0.0
2018-Jul-04 16:56N 41°28' E 031°47'0 0.0
2018-Jul-04 15:08N 41°28' E 031°47'0 0.0
2018-Jul-04 14:56N 41°28' E 031°47'0 0.0
2018-Jul-04 08:48N 41°28' E 031°47'0 0.0
2018-Jul-04 08:27N 41°28' E 031°47'0 0.0
2018-Jul-04 08:00N 41°28' E 031°47'14 7.0
2018-Jul-04 05:57N 41°22' E 031°29'4 8.6
2018-Jul-04 05:29N 41°20' E 031°25'4 8.6
2018-Jul-04 05:00N 41°19' E 031°19'4 8.3
2018-Jul-04 04:30N 41°19' E 031°14'4 8.2
2018-Jul-04 04:00N 41°19' E 031°08'4 8.5
2018-Jul-04 03:30N 41°18' E 031°03'4 8.3
2018-Jul-04 03:00N 41°18' E 030°57'4 8.2
2018-Jul-04 02:30N 41°18' E 030°52'4 8.2
2018-Jul-04 02:00N 41°18' E 030°46'4 8.2
2018-Jul-04 01:30N 41°18' E 030°41'4 8.3
2018-Jul-04 01:00N 41°17' E 030°35'4 8.1
2018-Jul-04 00:30N 41°17' E 030°30'4 8.0
2018-Jul-04 00:00N 41°17' E 030°25'4 8.1
2018-Jul-03 23:30N 41°16' E 030°19'4 8.2
2018-Jul-03 23:00N 41°16' E 030°14'4 8.3
2018-Jul-03 22:30N 41°16' E 030°08'19 8.7
2018-Jul-03 20:18N 41°16' E 029°43'2 8.4
2018-Jul-03 20:00N 41°16' E 029°40'4 8.2
2018-Jul-03 19:28N 41°16' E 029°34'4 8.2
2018-Jul-03 19:00N 41°16' E 029°29'4 8.0
2018-Jul-03 18:30N 41°15' E 029°23'4 8.0
2018-Jul-03 18:00N 41°15' E 029°18'4 8.0
2018-Jul-03 17:30N 41°15' E 029°13'5 8.2
2018-Jul-03 16:56N 41°13' E 029°07'  
2018-Jun-27 22:45N 41°53' E 032°42'19 8.6
2018-Jun-27 20:34N 41°59' E 033°06'2 8.8
2018-Jun-27 20:23N 41°60' E 033°08'  

Dump ship's entire track history